Get Adobe Flash player

РУС

ENG

 
  Pireps - S7
 

Рейс SBI45

  • Выполнял: Andrey Mamontov
  • Аэропорт отправления: Domodedovo Airport (UUDD)
  • Аэропорт назначения: Pulkovo Airport (ULLI)
  • Тип ВС: A319-112 (VP-BTQ)
  • Время полёта: 01.26
  • Дата полёта: 11.09.2017
  • Маршрут: OBELU B239 AJ R900LANSO R962 GENPA
  • Статус: Одобрен

Детали полёта
Gross Revenue:
(106 load / $ 200.00 per unit
$ 21, 200.00
Fuel Cost:
(3522 fuel used @ 5.1 / unit)
$ 17, 962.20


Дополнительная информация о полёте:

Лог

Aircraft Used in flight is Airbus A319 American Airlines N8001N
18:33 Boarding
18:33 Navigation Lights ON at 600 AGL
18:33 Beacon Lights ON at 600 AGL
18:33 Brakes are On
18:36 Engine 2 Started
18:37 Engine 1 Started
18:38 Spoilers Armed
18:38Flaps 2 Selected at 600ft and 0kts
18:39 Taxi Lights ON at 600 AGL
18:39 Brakes are Released
18:43 Landing Lights ON at 600 AGL
18:43 Strobe Lights ON at 600 AGL
18:45 You Took off @ 138 Knots and Flaps at Position 2
Departure Weather
UUDD 111130Z 22004G09MPS 170V270 CAVOK 23/11 Q1014 R88/010095 NOSIGrn
18:45 Paused
18:45 Landing Gear Up @ 149 Knots and 660 Feet
18:45 Taxi Lights OFF at 670 AGL
18:45 Unpaused
18:45 Spoilers Disarmed
18:46Flaps Retracted at 1890ft and 193kts
18:49 Landing Lights OFF at 9210 AGL
18:55 You exceeded maximum bank angle
19:04 TOC Reached
19:44 Landing Lights ON at 9740 AGL
19:51Flaps 1 Selected at 4620ft and 199kts
19:53Flaps 3 Selected at 3300ft and 170kts
19:56 Landing Gear Down @ 139 Knots and 2040 Feet
19:56 Spoilers Armed
19:56Flaps 4 Selected at 1870ft and 137kts
19:56 Taxi Lights ON at 1840 AGL
19:56Flaps 5 Selected at 1810ft and 136kts
19:59 You Landed @ 139 Knots and with -200 Vertical Speed
Arrival Weather
ULLI 111100Z 27003MPS 230V290 9999 SCT025 BKN033 17/12 Q1007 R28L/090060 R28R/190055 NOSIGrn
19:59 Spoilers Disarmed
19:59 Paused
19:59Flaps Retracted at 90ft and 24kts
20:00 Landing Lights OFF at 90 AGL
20:00 Strobe Lights OFF at 90 AGL
20:00 Unpaused
20:01 Paused
20:03 Unpaused
20:03 Brakes are On
20:03 Engine 1 Stoped
20:03 Engine 2 Stoped
Pirep logged with S7 Tracking 1.0.0.13



Общая оценка полета : 100%




Route Map



 
 
   
 
Новости

18.08.2017 - Обновление S7 pad

С выходом версии P3d v4 наш клиент S7 pad мог не работать.
Нами проделана работа по оптимизации клиента и теперь доступна версия для P3d V4.
скачать новую версию клиента и установить FSUIPC5. Все есть в архиве.

   
 
Авторизация






Регистрация

Восстановить пароль?

Мы в соц. сетях

      



   
 

   
 



   
 


Яндекс.Метрика

www.va-s7.ru 2011-2017
Все права защищены.



Минуточку внимания!
Мы не имеем отношения к торговым маркам "S7" и "Globus" и их представителям.
Эмблемы на сайте являются собственностью соответствующих компаний.

аэронавигационная метеорологическая и любая другая информация с данного ресурса ни в коем случае не должна использоваться для реальных полетов